createdAt,value
2023-04-21T00:02:23.466Z,21.46
2023-04-21T00:04:51.328Z,21.45
2023-04-21T00:07:19.629Z,21.44
2023-04-21T00:09:46.170Z,21.42
2023-04-21T00:12:13.107Z,21.42
2023-04-21T00:14:39.677Z,21.41
2023-04-21T00:17:06.388Z,21.39
2023-04-21T00:19:34.769Z,21.38
2023-04-21T00:22:01.417Z,21.38
2023-04-21T00:24:28.142Z,21.36
2023-04-21T00:26:55.300Z,21.34
2023-04-21T00:29:22.547Z,21.33
2023-04-21T00:31:50.321Z,21.32
2023-04-21T00:34:17.169Z,21.31
2023-04-21T00:36:45.328Z,21.30
2023-04-21T00:39:12.069Z,21.29
2023-04-21T00:41:39.426Z,21.28
2023-04-21T00:44:07.733Z,21.28
2023-04-21T00:46:34.679Z,21.27
2023-04-21T00:49:03.836Z,21.27
2023-04-21T00:51:31.302Z,21.26
2023-04-21T00:53:57.943Z,21.25
2023-04-21T00:56:24.577Z,21.25
2023-04-21T00:58:51.222Z,21.26
2023-04-21T01:01:17.876Z,21.26
2023-04-21T01:03:47.463Z,21.26
2023-04-21T01:06:14.304Z,21.26
2023-04-21T01:08:41.677Z,21.26
2023-04-21T01:11:10.542Z,21.26
2023-04-21T01:13:40.269Z,21.26
2023-04-21T01:16:10.307Z,21.26
2023-04-21T01:18:37.128Z,21.26
2023-04-21T01:21:05.717Z,21.26
2023-04-21T01:23:33.575Z,21.26
2023-04-21T01:26:00.619Z,21.26
2023-04-21T01:28:27.283Z,21.26
2023-04-21T01:30:53.917Z,21.26
2023-04-21T01:33:22.103Z,21.25
2023-04-21T01:35:49.022Z,21.24
2023-04-21T01:38:19.769Z,21.24
2023-04-21T01:40:50.913Z,21.23
2023-04-21T01:43:19.064Z,21.23
2023-04-21T01:45:46.558Z,21.23
2023-04-21T01:48:13.536Z,21.23
2023-04-21T01:50:40.151Z,21.23
2023-04-21T01:53:09.630Z,21.22
2023-04-21T01:55:36.491Z,21.21
2023-04-21T01:58:03.512Z,21.21
2023-04-21T02:00:30.176Z,21.20
2023-04-21T02:02:56.851Z,21.20
2023-04-21T02:05:23.937Z,21.19
2023-04-21T02:07:50.681Z,21.18
2023-04-21T02:10:17.450Z,21.18
2023-04-21T02:12:44.704Z,21.17
2023-04-21T02:15:11.537Z,21.16
2023-04-21T02:17:38.708Z,21.15
2023-04-21T02:20:06.965Z,21.14
2023-04-21T02:22:33.681Z,21.12
2023-04-21T02:25:03.854Z,21.12
2023-04-21T02:27:30.544Z,21.11
2023-04-21T02:30:00.463Z,21.11
2023-04-21T02:32:27.885Z,21.09
2023-04-21T02:34:54.641Z,21.08
2023-04-21T02:37:21.293Z,21.08
2023-04-21T02:39:47.948Z,21.07
2023-04-21T02:42:14.672Z,21.06
2023-04-21T02:44:42.442Z,21.05
2023-04-21T02:47:08.982Z,21.05
2023-04-21T02:49:40.733Z,21.03
2023-04-21T02:52:07.360Z,21.02
2023-04-21T02:54:33.794Z,21.01
2023-04-21T02:57:01.460Z,21.01
2023-04-21T02:59:28.602Z,20.99
2023-04-21T03:01:55.395Z,20.99
2023-04-21T03:04:23.811Z,20.98
2023-04-21T03:06:50.981Z,20.97
2023-04-21T03:09:17.829Z,20.96
2023-04-21T03:11:44.598Z,20.95
2023-04-21T03:14:11.952Z,20.94
2023-04-21T03:16:38.693Z,20.93
2023-04-21T03:19:05.418Z,20.93
2023-04-21T03:21:32.046Z,20.92
2023-04-21T03:23:58.588Z,20.91
2023-04-21T03:26:25.410Z,20.91
2023-04-21T03:28:52.373Z,20.90
2023-04-21T03:31:18.900Z,20.90
2023-04-21T03:33:45.780Z,20.89
2023-04-21T03:36:12.488Z,20.88
2023-04-21T03:38:39.763Z,20.89
2023-04-21T03:41:06.480Z,20.90
2023-04-21T03:43:33.128Z,20.90
2023-04-21T03:45:59.972Z,20.90
2023-04-21T03:48:28.035Z,20.91
2023-04-21T03:50:55.082Z,20.95
2023-04-21T03:53:21.719Z,20.97
2023-04-21T03:55:51.733Z,20.96
2023-04-21T03:58:18.199Z,20.93
2023-04-21T04:00:45.118Z,20.91
2023-04-21T04:03:11.877Z,20.90
2023-04-21T04:05:38.822Z,20.90
2023-04-21T04:08:06.046Z,20.90
2023-04-21T04:10:32.889Z,20.88
2023-04-21T04:13:00.554Z,20.88
2023-04-21T04:15:27.809Z,20.88
2023-04-21T04:17:55.101Z,20.85
2023-04-21T04:20:22.315Z,20.89
2023-04-21T04:22:48.954Z,20.89
2023-04-21T04:25:16.510Z,20.89
2023-04-21T04:27:48.988Z,20.88
2023-04-21T04:30:16.349Z,20.87
2023-04-21T04:37:48.029Z,20.89
2023-04-21T04:40:15.791Z,20.91
2023-04-21T04:42:42.743Z,20.93
2023-04-21T04:45:10.708Z,20.96
2023-04-21T04:47:37.609Z,20.98
2023-04-21T04:50:05.319Z,20.99
2023-04-21T04:52:31.957Z,21.01
2023-04-21T04:54:59.119Z,21.01
2023-04-21T04:57:25.631Z,21.03
2023-04-21T04:59:55.650Z,21.03
2023-04-21T05:02:23.505Z,21.04
2023-04-21T05:04:50.850Z,21.05
2023-04-21T05:07:17.531Z,21.05
2023-04-21T05:09:44.151Z,21.05
2023-04-21T05:12:10.900Z,21.04
2023-04-21T05:14:37.740Z,21.05
2023-04-21T05:17:04.586Z,21.05
2023-04-21T05:19:31.643Z,21.05
2023-04-21T05:22:02.574Z,21.04
2023-04-21T05:24:29.237Z,21.05
2023-04-21T05:26:56.155Z,21.05
2023-04-21T05:29:22.904Z,21.05
2023-04-21T05:31:49.498Z,21.05
2023-04-21T05:34:16.166Z,21.05
2023-04-21T05:36:43.022Z,21.05
2023-04-21T05:39:09.864Z,21.05
2023-04-21T05:41:36.492Z,21.05
2023-04-21T05:44:03.138Z,21.05
2023-04-21T05:46:29.993Z,21.04
2023-04-21T05:48:58.042Z,21.05
2023-04-21T05:51:24.696Z,21.04
2023-04-21T05:53:51.200Z,21.04
2023-04-21T05:56:18.385Z,21.04
2023-04-21T05:58:45.425Z,21.04
2023-04-21T06:01:12.573Z,21.04
2023-04-21T06:03:39.581Z,21.04
2023-04-21T06:06:07.197Z,21.04
2023-04-21T06:08:35.148Z,21.04
2023-04-21T06:11:01.783Z,21.03
2023-04-21T06:13:29.657Z,21.03
2023-04-21T06:15:56.609Z,21.03
2023-04-21T06:18:26.408Z,21.03
2023-04-21T06:20:53.532Z,21.03
2023-04-21T06:23:20.702Z,21.04
2023-04-21T06:25:58.001Z,21.04
2023-04-21T06:28:25.150Z,21.05
2023-04-21T06:30:51.785Z,21.05
2023-04-21T06:33:18.322Z,21.05
2023-04-21T06:35:44.961Z,21.05
2023-04-21T06:38:11.513Z,21.06
2023-04-21T06:40:38.340Z,21.06
2023-04-21T06:43:06.171Z,21.06
2023-04-21T06:45:32.834Z,21.07
2023-04-21T06:47:59.818Z,21.07
2023-04-21T06:50:26.871Z,21.10
2023-04-21T06:52:53.476Z,21.12
2023-04-21T06:55:20.217Z,21.13
2023-04-21T06:57:46.845Z,21.16
2023-04-21T07:00:14.199Z,21.18
2023-04-21T07:02:43.710Z,21.19
2023-04-21T07:05:10.604Z,21.21
2023-04-21T07:07:38.739Z,21.23
2023-04-21T07:10:06.709Z,21.26
2023-04-21T07:12:34.891Z,21.30
2023-04-21T07:15:01.625Z,21.32
2023-04-21T07:17:28.190Z,21.35
2023-04-21T07:19:54.780Z,21.38
2023-04-21T07:22:21.459Z,21.40
2023-04-21T07:24:49.362Z,21.41
2023-04-21T07:27:18.494Z,21.43
2023-04-21T07:29:45.647Z,21.44
2023-04-21T07:32:12.391Z,21.47
2023-04-21T07:34:39.541Z,21.49
2023-04-21T07:37:06.198Z,21.53
2023-04-21T07:39:32.824Z,21.56
2023-04-21T07:41:59.851Z,21.58
2023-04-21T07:44:28.691Z,21.60
2023-04-21T07:46:55.688Z,21.62
2023-04-21T07:49:22.695Z,21.65
2023-04-21T07:51:50.024Z,21.67
2023-04-21T07:54:17.378Z,21.69
2023-04-21T07:56:44.088Z,21.72
2023-04-21T07:59:10.921Z,21.75
2023-04-21T08:01:37.678Z,21.79
2023-04-21T08:04:04.543Z,21.82
2023-04-21T08:06:32.634Z,21.86
2023-04-21T08:08:59.641Z,21.90
2023-04-21T08:11:28.012Z,21.94
2023-04-21T08:13:54.545Z,21.98
2023-04-21T08:16:21.456Z,22.01
2023-04-21T08:18:48.446Z,22.05
2023-04-21T08:21:15.190Z,22.07
2023-04-21T08:23:41.921Z,22.11
2023-04-21T08:26:08.786Z,22.13
2023-04-21T08:28:35.614Z,22.15
2023-04-21T08:31:02.403Z,22.17
2023-04-21T08:33:29.491Z,22.18
2023-04-21T08:38:28.985Z,22.21
2023-04-21T08:40:55.775Z,22.23
2023-04-21T08:43:22.716Z,22.25
2023-04-21T08:45:50.618Z,22.26
2023-04-21T08:48:18.341Z,22.28
2023-04-21T08:50:46.104Z,22.29
2023-04-21T08:53:12.676Z,22.29
2023-04-21T08:55:40.018Z,22.30
2023-04-21T08:58:08.572Z,22.30
2023-04-21T09:00:35.825Z,22.28
2023-04-21T09:03:05.646Z,22.27
2023-04-21T09:05:39.542Z,22.25
2023-04-21T09:08:13.959Z,22.24
2023-04-21T09:10:51.194Z,22.23
2023-04-21T09:13:20.312Z,22.21
2023-04-21T09:15:49.146Z,22.19
2023-04-21T09:18:17.824Z,22.18
2023-04-21T09:20:45.224Z,22.17
2023-04-21T09:23:11.830Z,22.16
2023-04-21T09:25:39.712Z,22.15
2023-04-21T09:28:15.855Z,22.13
2023-04-21T09:30:42.749Z,22.12
2023-04-21T09:33:28.983Z,22.11
2023-04-21T09:36:00.763Z,22.09
2023-04-21T09:38:27.612Z,22.07
2023-04-21T09:40:59.429Z,22.05
2023-04-21T09:43:26.218Z,22.05
2023-04-21T09:45:53.432Z,22.04
2023-04-21T09:48:22.303Z,22.04
2023-04-21T09:53:18.911Z,22.03
2023-04-21T09:55:46.266Z,22.02
2023-04-21T09:58:12.994Z,22.01
2023-04-21T10:00:40.557Z,22.00
2023-04-21T10:03:09.881Z,22.00
2023-04-21T10:05:39.451Z,22.00
2023-04-21T10:08:10.917Z,22.00
2023-04-21T10:10:37.570Z,22.00
2023-04-21T10:13:04.190Z,22.01
2023-04-21T10:15:35.539Z,22.00
2023-04-21T10:18:24.604Z,22.00
2023-04-21T10:20:54.837Z,22.00
2023-04-21T10:23:32.733Z,22.02
2023-04-21T10:26:10.312Z,22.05
2023-04-21T10:28:46.728Z,22.08
2023-04-21T10:31:16.781Z,22.11
2023-04-21T10:34:12.447Z,22.12
2023-04-21T10:37:05.687Z,22.14
2023-04-21T10:47:40.645Z,22.28
2023-04-21T10:58:01.440Z,22.38
2023-04-21T11:00:29.369Z,22.41
2023-04-21T11:02:58.676Z,22.45
2023-04-21T11:05:30.354Z,22.49
2023-04-21T11:08:10.921Z,22.54
2023-04-21T11:10:48.200Z,22.58
2023-04-21T11:13:17.306Z,22.61
2023-04-21T11:15:57.547Z,22.63
2023-04-21T11:18:36.685Z,22.65
2023-04-21T11:21:17.254Z,22.65
2023-04-21T11:23:54.540Z,22.65
2023-04-21T11:26:35.131Z,22.65
2023-04-21T11:29:07.124Z,22.65
2023-04-21T11:31:35.772Z,22.65
2023-04-21T11:34:04.764Z,22.65
2023-04-21T11:36:34.971Z,22.67
2023-04-21T11:39:07.553Z,22.71
2023-04-21T11:41:34.695Z,22.74
2023-04-21T11:44:01.570Z,22.76
2023-04-21T11:46:28.332Z,22.79
2023-04-21T11:49:05.522Z,22.82
2023-04-21T11:51:36.652Z,22.85
2023-04-21T11:54:10.968Z,22.86
2023-04-21T11:56:39.547Z,22.86
2023-04-21T11:59:13.627Z,22.86
2023-04-21T12:01:47.320Z,22.86
2023-04-21T12:04:18.497Z,22.88
2023-04-21T12:06:55.656Z,22.89
2023-04-21T12:09:22.186Z,22.91
2023-04-21T12:12:01.345Z,22.92
2023-04-21T12:14:28.265Z,22.93
2023-04-21T12:16:56.034Z,22.93
2023-04-21T12:19:23.595Z,22.94
2023-04-21T12:21:55.660Z,22.95
2023-04-21T12:24:22.614Z,22.96
2023-04-21T12:26:50.875Z,22.96
2023-04-21T12:29:17.413Z,22.96
2023-04-21T12:31:44.289Z,22.96
2023-04-21T12:34:11.076Z,22.96
2023-04-21T12:36:38.365Z,22.96
2023-04-21T12:39:06.754Z,22.95
2023-04-21T12:41:34.116Z,22.94
2023-04-21T12:44:00.956Z,22.93
2023-04-21T12:46:28.040Z,22.92
2023-04-21T12:48:55.451Z,22.90
2023-04-21T12:51:22.180Z,22.88
2023-04-21T12:53:49.333Z,22.86
2023-04-21T12:56:16.267Z,22.84
2023-04-21T12:58:42.908Z,22.82
2023-04-21T13:01:11.563Z,22.79
2023-04-21T13:03:38.638Z,22.78
2023-04-21T13:06:06.002Z,22.76
2023-04-21T13:08:32.747Z,22.75
2023-04-21T13:10:59.485Z,22.74
2023-04-21T13:13:26.337Z,22.72
2023-04-21T13:15:53.693Z,22.70
2023-04-21T13:18:20.524Z,22.69
2023-04-21T13:20:47.163Z,22.68
2023-04-21T13:23:14.424Z,22.67
2023-04-21T13:25:41.061Z,22.66
2023-04-21T13:28:07.584Z,22.65
2023-04-21T13:30:35.684Z,22.64
2023-04-21T13:33:03.196Z,22.63
2023-04-21T13:35:29.962Z,22.61
2023-04-21T13:37:56.920Z,22.61
2023-04-21T13:40:23.539Z,22.59
2023-04-21T13:42:50.806Z,22.59
2023-04-21T13:45:17.738Z,22.58
2023-04-21T13:47:44.543Z,22.57
2023-04-21T13:50:11.530Z,22.56
2023-04-21T13:52:38.379Z,22.55
2023-04-21T13:55:05.960Z,22.54
2023-04-21T13:57:32.695Z,22.53
2023-04-21T13:59:59.628Z,22.52
2023-04-21T14:02:26.510Z,22.52
2023-04-21T14:04:54.141Z,22.50
2023-04-21T14:07:21.479Z,22.49
2023-04-21T14:09:49.755Z,22.48
2023-04-21T14:12:17.220Z,22.46
2023-04-21T14:14:43.860Z,22.45
2023-04-21T14:17:10.591Z,22.43
2023-04-21T14:19:37.448Z,22.43
2023-04-21T14:22:04.195Z,22.42
2023-04-21T14:24:32.387Z,22.41
2023-04-21T14:26:59.319Z,22.40
2023-04-21T14:29:26.267Z,22.39
2023-04-21T14:31:56.920Z,22.39
2023-04-21T14:34:25.301Z,22.38
2023-04-21T14:36:52.748Z,22.37
2023-04-21T14:39:19.673Z,22.36
2023-04-21T14:41:46.936Z,22.35
2023-04-21T14:44:13.879Z,22.35
2023-04-21T14:46:41.199Z,22.33
2023-04-21T14:49:08.066Z,22.31
2023-04-21T14:51:36.862Z,22.30
2023-04-21T14:54:03.689Z,22.28
2023-04-21T14:56:30.360Z,22.27
2023-04-21T14:58:57.228Z,22.26
2023-04-21T15:01:25.986Z,22.25
2023-04-21T15:03:53.257Z,22.23
2023-04-21T15:06:20.471Z,22.21
2023-04-21T15:08:47.365Z,22.21
2023-04-21T15:11:14.081Z,22.20
2023-04-21T15:13:40.786Z,22.20
2023-04-21T15:16:07.733Z,22.19
2023-04-21T15:18:34.672Z,22.19
2023-04-21T15:21:02.070Z,22.18
2023-04-21T15:23:29.000Z,22.17
2023-04-21T15:25:57.457Z,22.17
2023-04-21T15:28:24.096Z,22.16
2023-04-21T15:30:50.697Z,22.15
2023-04-21T15:33:17.377Z,22.16
2023-04-21T15:35:44.116Z,22.17
2023-04-21T15:38:10.850Z,22.18
2023-04-21T15:40:43.709Z,22.20
2023-04-21T15:43:20.304Z,22.20
2023-04-21T15:45:46.995Z,22.21
2023-04-21T15:48:16.262Z,22.23
2023-04-21T15:50:44.827Z,22.26
2023-04-21T15:53:11.585Z,22.31
2023-04-21T15:55:38.524Z,22.36
2023-04-21T15:58:05.558Z,22.40
2023-04-21T16:00:32.419Z,22.42
2023-04-21T16:02:59.657Z,22.41
2023-04-21T16:05:29.044Z,22.40
2023-04-21T16:07:56.014Z,22.39
2023-04-21T16:10:22.684Z,22.37
2023-04-21T16:12:50.400Z,22.34
2023-04-21T16:15:23.515Z,22.33
2023-04-21T16:17:50.996Z,22.31
2023-04-21T16:20:17.714Z,22.29
2023-04-21T16:22:44.746Z,22.29
2023-04-21T16:25:13.177Z,22.28
2023-04-21T16:27:40.080Z,22.28
2023-04-21T16:30:08.330Z,22.27
2023-04-21T16:32:35.698Z,22.26
2023-04-21T16:35:07.335Z,22.26
2023-04-21T16:37:53.246Z,22.29
2023-04-21T16:40:22.466Z,22.29
2023-04-21T16:42:50.743Z,22.35
2023-04-21T16:45:19.378Z,22.38
